DLH170 EDDF-EDDB
Flight info
| Callsign | DLH170 |
|---|---|
| Flight time | 0h 48m |
| Altitude | 31000 |
| Route | TOBAK3W/25C TOBAK N858 SWALM T201 TAMEB T278 KLF |
| Aircraft | A320/M-SDE3FGHIRWY/LB1 |
Departure
| Time | 2026-05-05 21:26 |
|---|---|
| Airport | Frankfurt Main Airport (EDDF) |
Arrival
| Time | 2026-05-05 22:14 |
|---|---|
| Airport | Berlin Brandenburg Airport (EDDB) |
| Time | Latitude | Longitude | Altitude | Speed | Heading |
|---|---|---|---|---|---|
| 2026-05-05 21:06 | 50.04908 | 8.59106 | 365 ft | 0 kts | 340° |
| 2026-05-05 21:20 | 50.04887 | 8.59118 | 365 ft | 4 kts | 340° |
| 2026-05-05 21:20 | 50.04862 | 8.59132 | 368 ft | 4 kts | 340° |
| 2026-05-05 21:20 | 50.04836 | 8.59147 | 369 ft | 4 kts | 340° |
| 2026-05-05 21:20 | 50.04823 | 8.59154 | 368 ft | 0 kts | 340° |
| 2026-05-05 21:23 | 50.04820 | 8.59104 | 370 ft | 13 kts | 237° |
| 2026-05-05 21:23 | 50.04775 | 8.58965 | 368 ft | 15 kts | 249° |
| 2026-05-05 21:24 | 50.04735 | 8.58809 | 369 ft | 16 kts | 237° |
| 2026-05-05 21:24 | 50.04638 | 8.58759 | 370 ft | 15 kts | 188° |
| 2026-05-05 21:24 | 50.04549 | 8.58671 | 371 ft | 16 kts | 220° |
| 2026-05-05 21:24 | 50.04478 | 8.58542 | 370 ft | 14 kts | 244° |
| 2026-05-05 21:25 | 50.04470 | 8.58513 | 374 ft | 0 kts | 250° |
| 2026-05-05 21:25 | 50.04469 | 8.58510 | 373 ft | 3 kts | 250° |
| 2026-05-05 21:25 | 50.04397 | 8.58212 | 372 ft | 66 kts | 249° |
| 2026-05-05 21:25 | 50.04159 | 8.57215 | 365 ft | 128 kts | 250° |
| 2026-05-05 21:26 | 50.03791 | 8.55682 | 480 ft | 161 kts | 248° |
| 2026-05-05 21:26 | 50.03396 | 8.54072 | 1113 ft | 161 kts | 248° |
| 2026-05-05 21:26 | 50.03001 | 8.52425 | 1740 ft | 167 kts | 248° |
| 2026-05-05 21:26 | 50.02539 | 8.50636 | 2131 ft | 189 kts | 240° |
| 2026-05-05 21:27 | 50.01675 | 8.49044 | 2704 ft | 197 kts | 218° |
| 2026-05-05 21:27 | 50.00438 | 8.48097 | 3385 ft | 202 kts | 195° |
| 2026-05-05 21:27 | 49.99059 | 8.47753 | 4148 ft | 204 kts | 190° |
| 2026-05-05 21:27 | 49.97650 | 8.47438 | 4897 ft | 206 kts | 191° |
| 2026-05-05 21:28 | 49.96223 | 8.47108 | 5615 ft | 208 kts | 195° |
| 2026-05-05 21:28 | 49.94775 | 8.46477 | 6048 ft | 228 kts | 199° |
| 2026-05-05 21:28 | 49.93197 | 8.45742 | 6555 ft | 242 kts | 200° |
| 2026-05-05 21:28 | 49.91734 | 8.44476 | 7294 ft | 244 kts | 225° |
| 2026-05-05 21:29 | 49.90812 | 8.42283 | 8100 ft | 246 kts | 252° |
| 2026-05-05 21:29 | 49.90660 | 8.39651 | 8913 ft | 250 kts | 279° |
| 2026-05-05 21:29 | 49.91356 | 8.37167 | 9720 ft | 258 kts | 307° |
| 2026-05-05 21:29 | 49.92799 | 8.35461 | 10439 ft | 268 kts | 333° |
| 2026-05-05 21:30 | 49.94578 | 8.34275 | 10789 ft | 290 kts | 334° |
| 2026-05-05 21:30 | 49.96519 | 8.33018 | 11022 ft | 314 kts | 334° |
| 2026-05-05 21:30 | 49.97887 | 8.32136 | 11172 ft | 329 kts | 335° |
| 2026-05-05 21:30 | 50.00077 | 8.30729 | 11346 ft | 352 kts | 335° |
| 2026-05-05 21:31 | 50.03280 | 8.29279 | 12017 ft | 369 kts | 349° |
| 2026-05-05 21:31 | 50.05019 | 8.29061 | 12465 ft | 374 kts | 357° |
| 2026-05-05 21:31 | 50.07631 | 8.29425 | 13151 ft | 381 kts | 9° |
| 2026-05-05 21:31 | 50.10162 | 8.30566 | 13802 ft | 386 kts | 17° |
| 2026-05-05 21:32 | 50.12757 | 8.31919 | 14428 ft | 390 kts | 17° |
| 2026-05-05 21:32 | 50.15307 | 8.33249 | 15028 ft | 393 kts | 17° |
| 2026-05-05 21:32 | 50.17915 | 8.34612 | 15628 ft | 397 kts | 17° |
| 2026-05-05 21:32 | 50.20549 | 8.35995 | 16235 ft | 401 kts | 18° |
| 2026-05-05 21:33 | 50.23199 | 8.37394 | 16834 ft | 405 kts | 18° |
| 2026-05-05 21:33 | 50.25877 | 8.38809 | 17431 ft | 408 kts | 18° |
| 2026-05-05 21:33 | 50.28500 | 8.40582 | 18023 ft | 413 kts | 28° |
| 2026-05-05 21:33 | 50.30907 | 8.43048 | 18546 ft | 416 kts | 39° |
| 2026-05-05 21:34 | 50.33098 | 8.46033 | 19083 ft | 419 kts | 42° |
| 2026-05-05 21:34 | 50.35279 | 8.49074 | 19604 ft | 421 kts | 42° |
| 2026-05-05 21:34 | 50.37477 | 8.52132 | 20122 ft | 424 kts | 43° |
| 2026-05-05 21:34 | 50.39690 | 8.55206 | 20642 ft | 426 kts | 43° |
| 2026-05-05 21:35 | 50.41912 | 8.58292 | 21147 ft | 428 kts | 43° |
| 2026-05-05 21:35 | 50.44149 | 8.61403 | 21646 ft | 430 kts | 43° |
| 2026-05-05 21:35 | 50.46407 | 8.64505 | 22128 ft | 432 kts | 42° |
| 2026-05-05 21:35 | 50.48707 | 8.67568 | 22595 ft | 435 kts | 41° |
| 2026-05-05 21:36 | 50.51045 | 8.70617 | 23043 ft | 437 kts | 41° |
| 2026-05-05 21:36 | 50.53397 | 8.73664 | 23460 ft | 439 kts | 41° |
| 2026-05-05 21:36 | 50.55675 | 8.76777 | 23828 ft | 439 kts | 47° |
| 2026-05-05 21:36 | 50.57657 | 8.80400 | 24227 ft | 437 kts | 56° |
| 2026-05-05 21:37 | 50.59251 | 8.84469 | 24601 ft | 436 kts | 64° |
| 2026-05-05 21:37 | 50.60701 | 8.88676 | 24971 ft | 437 kts | 64° |
| 2026-05-05 21:37 | 50.62161 | 8.92898 | 25326 ft | 438 kts | 64° |
| 2026-05-05 21:37 | 50.63624 | 8.97117 | 25672 ft | 440 kts | 64° |
| 2026-05-05 21:38 | 50.65094 | 9.01345 | 26014 ft | 441 kts | 64° |
| 2026-05-05 21:38 | 50.66574 | 9.05602 | 26346 ft | 442 kts | 64° |
| 2026-05-05 21:38 | 50.68048 | 9.09854 | 26665 ft | 443 kts | 64° |
| 2026-05-05 21:38 | 50.69524 | 9.14131 | 26967 ft | 444 kts | 64° |
| 2026-05-05 21:39 | 50.70972 | 9.18442 | 27258 ft | 444 kts | 68° |
| 2026-05-05 21:39 | 50.72075 | 9.22978 | 27538 ft | 443 kts | 76° |
| 2026-05-05 21:39 | 50.72805 | 9.27638 | 27815 ft | 443 kts | 79° |
| 2026-05-05 21:39 | 50.73513 | 9.32383 | 28085 ft | 444 kts | 79° |
| 2026-05-05 21:40 | 50.74225 | 9.37135 | 28344 ft | 445 kts | 79° |
| 2026-05-05 21:40 | 50.74941 | 9.41886 | 28639 ft | 445 kts | 79° |
| 2026-05-05 21:40 | 50.76368 | 9.51382 | 29328 ft | 443 kts | 79° |
| 2026-05-05 21:41 | 50.77074 | 9.56106 | 29691 ft | 441 kts | 79° |
| 2026-05-05 21:41 | 50.77777 | 9.60826 | 30022 ft | 440 kts | 79° |
| 2026-05-05 21:41 | 50.78474 | 9.65526 | 30311 ft | 439 kts | 79° |
| 2026-05-05 21:41 | 50.79167 | 9.70218 | 30592 ft | 439 kts | 79° |
| 2026-05-05 21:42 | 50.79860 | 9.74917 | 30790 ft | 439 kts | 79° |
| 2026-05-05 21:42 | 50.80553 | 9.79619 | 30830 ft | 439 kts | 79° |
| 2026-05-05 21:42 | 50.81938 | 9.89019 | 30826 ft | 439 kts | 79° |
| 2026-05-05 21:43 | 50.83302 | 9.98389 | 30830 ft | 441 kts | 80° |
| 2026-05-05 21:43 | 50.84404 | 10.07906 | 30826 ft | 437 kts | 90° |
| 2026-05-05 21:44 | 50.84070 | 10.17460 | 30826 ft | 434 kts | 97° |
| 2026-05-05 21:44 | 50.83521 | 10.26979 | 30823 ft | 435 kts | 97° |
| 2026-05-05 21:45 | 50.82976 | 10.36491 | 30821 ft | 434 kts | 97° |
| 2026-05-05 21:45 | 50.82425 | 10.46019 | 30802 ft | 435 kts | 97° |
| 2026-05-05 21:46 | 50.81859 | 10.55495 | 30799 ft | 436 kts | 98° |
| 2026-05-05 21:46 | 50.81279 | 10.65031 | 30798 ft | 436 kts | 96° |
| 2026-05-05 21:47 | 50.81858 | 10.74601 | 30800 ft | 443 kts | 77° |
| 2026-05-05 21:47 | 50.84360 | 10.83547 | 30775 ft | 448 kts | 65° |
| 2026-05-05 21:48 | 50.87307 | 10.92265 | 30774 ft | 450 kts | 65° |
| 2026-05-05 21:48 | 50.90237 | 11.01028 | 30784 ft | 451 kts | 65° |
| 2026-05-05 21:49 | 50.93180 | 11.09807 | 30792 ft | 451 kts | 65° |
| 2026-05-05 21:49 | 50.96123 | 11.18612 | 30793 ft | 451 kts | 66° |
| 2026-05-05 21:50 | 50.99051 | 11.27429 | 30786 ft | 451 kts | 66° |
| 2026-05-05 21:50 | 51.01973 | 11.36252 | 30790 ft | 451 kts | 66° |
| 2026-05-05 21:51 | 51.04873 | 11.45033 | 30750 ft | 452 kts | 66° |
| 2026-05-05 21:51 | 51.07808 | 11.53919 | 30765 ft | 455 kts | 66° |
| 2026-05-05 21:52 | 51.12196 | 11.67337 | 30767 ft | 456 kts | 66° |
| 2026-05-05 21:53 | 51.15120 | 11.76302 | 30771 ft | 457 kts | 66° |
| 2026-05-05 21:53 | 51.18039 | 11.85298 | 30776 ft | 457 kts | 66° |
| 2026-05-05 21:54 | 51.21107 | 11.94177 | 30766 ft | 461 kts | 58° |
| 2026-05-05 21:54 | 51.25381 | 12.01908 | 30751 ft | 467 kts | 49° |
| 2026-05-05 21:55 | 51.29886 | 12.09458 | 30766 ft | 470 kts | 50° |
| 2026-05-05 21:55 | 51.34384 | 12.17064 | 30764 ft | 471 kts | 50° |
| 2026-05-05 21:56 | 51.38894 | 12.24706 | 30785 ft | 473 kts | 50° |
| 2026-05-05 21:56 | 51.43386 | 12.32326 | 30781 ft | 475 kts | 49° |
| 2026-05-05 21:57 | 51.47922 | 12.40044 | 30782 ft | 477 kts | 49° |
| 2026-05-05 21:57 | 51.52469 | 12.47810 | 30786 ft | 478 kts | 50° |
| 2026-05-05 21:57 | 51.54744 | 12.51708 | 30602 ft | 478 kts | 50° |
| 2026-05-05 21:58 | 51.57029 | 12.55632 | 29248 ft | 485 kts | 50° |
| 2026-05-05 21:58 | 51.59354 | 12.59640 | 27662 ft | 494 kts | 49° |
| 2026-05-05 21:58 | 51.61712 | 12.63704 | 26196 ft | 499 kts | 48° |
| 2026-05-05 21:58 | 51.64090 | 12.67799 | 24895 ft | 501 kts | 48° |
| 2026-05-05 21:59 | 51.66459 | 12.71879 | 23852 ft | 496 kts | 48° |
| 2026-05-05 21:59 | 51.68803 | 12.75924 | 22857 ft | 491 kts | 48° |
| 2026-05-05 21:59 | 51.71113 | 12.79919 | 21887 ft | 484 kts | 48° |
| 2026-05-05 21:59 | 51.73398 | 12.83880 | 21066 ft | 477 kts | 49° |
| 2026-05-05 22:00 | 51.75618 | 12.87739 | 20243 ft | 472 kts | 49° |
| 2026-05-05 22:00 | 51.77762 | 12.91689 | 19518 ft | 463 kts | 55° |
| 2026-05-05 22:00 | 51.79507 | 12.96012 | 18750 ft | 457 kts | 60° |
| 2026-05-05 22:00 | 51.81148 | 13.00383 | 17996 ft | 453 kts | 61° |
| 2026-05-05 22:01 | 51.82772 | 13.04716 | 17246 ft | 448 kts | 60° |
| 2026-05-05 22:01 | 51.84375 | 13.08993 | 16585 ft | 441 kts | 60° |
| 2026-05-05 22:01 | 51.85953 | 13.13209 | 15931 ft | 435 kts | 60° |
| 2026-05-05 22:01 | 51.87508 | 13.17373 | 15301 ft | 430 kts | 60° |
| 2026-05-05 22:02 | 51.89043 | 13.21492 | 14659 ft | 425 kts | 60° |
| 2026-05-05 22:02 | 51.90562 | 13.25576 | 14025 ft | 422 kts | 61° |
| 2026-05-05 22:02 | 51.92073 | 13.29640 | 13313 ft | 419 kts | 61° |
| 2026-05-05 22:02 | 51.93566 | 13.33667 | 12608 ft | 415 kts | 61° |
| 2026-05-05 22:03 | 51.95022 | 13.37609 | 11902 ft | 411 kts | 60° |
| 2026-05-05 22:03 | 51.96721 | 13.41247 | 11637 ft | 398 kts | 46° |
| 2026-05-05 22:03 | 51.98861 | 13.43941 | 11517 ft | 382 kts | 31° |
| 2026-05-05 22:03 | 52.01269 | 13.45562 | 11386 ft | 367 kts | 14° |
| 2026-05-05 22:04 | 52.03744 | 13.46059 | 11266 ft | 352 kts | 359° |
| 2026-05-05 22:04 | 52.06119 | 13.45526 | 11141 ft | 338 kts | 343° |
| 2026-05-05 22:04 | 52.08252 | 13.44124 | 11020 ft | 325 kts | 329° |
| 2026-05-05 22:04 | 52.10052 | 13.42084 | 10712 ft | 309 kts | 316° |
| 2026-05-05 22:05 | 52.11478 | 13.39531 | 10144 ft | 303 kts | 303° |
| 2026-05-05 22:05 | 52.12582 | 13.36616 | 9779 ft | 301 kts | 300° |
| 2026-05-05 22:05 | 52.13665 | 13.33714 | 9393 ft | 299 kts | 301° |
| 2026-05-05 22:05 | 52.14737 | 13.30864 | 8928 ft | 300 kts | 300° |
| 2026-05-05 22:06 | 52.15827 | 13.27976 | 8523 ft | 298 kts | 300° |
| 2026-05-05 22:06 | 52.16912 | 13.25106 | 8129 ft | 297 kts | 300° |
| 2026-05-05 22:06 | 52.17873 | 13.22161 | 7725 ft | 292 kts | 288° |
| 2026-05-05 22:06 | 52.18291 | 13.18978 | 7095 ft | 286 kts | 271° |
| 2026-05-05 22:07 | 52.18093 | 13.15803 | 6660 ft | 277 kts | 253° |
| 2026-05-05 22:07 | 52.17460 | 13.12855 | 6332 ft | 277 kts | 250° |
| 2026-05-05 22:07 | 52.17354 | 13.09753 | 5650 ft | 276 kts | 285° |
| 2026-05-05 22:07 | 52.18153 | 13.07025 | 5543 ft | 261 kts | 307° |
| 2026-05-05 22:08 | 52.19427 | 13.05044 | 5480 ft | 248 kts | 328° |
| 2026-05-05 22:08 | 52.20998 | 13.03955 | 5434 ft | 246 kts | 351° |
| 2026-05-05 22:08 | 52.22689 | 13.03878 | 5385 ft | 243 kts | 12° |
| 2026-05-05 22:08 | 52.24175 | 13.05012 | 5336 ft | 236 kts | 46° |
| 2026-05-05 22:09 | 52.25053 | 13.07230 | 5212 ft | 234 kts | 69° |
| 2026-05-05 22:09 | 52.25640 | 13.09700 | 4935 ft | 232 kts | 71° |
| 2026-05-05 22:09 | 52.26208 | 13.12122 | 4642 ft | 231 kts | 70° |
| 2026-05-05 22:09 | 52.26793 | 13.14556 | 4332 ft | 230 kts | 70° |
| 2026-05-05 22:10 | 52.27377 | 13.16975 | 4016 ft | 228 kts | 69° |
| 2026-05-05 22:10 | 52.27957 | 13.19374 | 3711 ft | 226 kts | 69° |
| 2026-05-05 22:10 | 52.28528 | 13.21743 | 3411 ft | 221 kts | 69° |
| 2026-05-05 22:10 | 52.29075 | 13.24012 | 3133 ft | 209 kts | 69° |
| 2026-05-05 22:11 | 52.29595 | 13.26175 | 2848 ft | 199 kts | 69° |
| 2026-05-05 22:11 | 52.30082 | 13.28200 | 2625 ft | 189 kts | 69° |
| 2026-05-05 22:11 | 52.30551 | 13.30151 | 2351 ft | 178 kts | 69° |
| 2026-05-05 22:11 | 52.30982 | 13.31950 | 2113 ft | 162 kts | 69° |
| 2026-05-05 22:12 | 52.31384 | 13.33623 | 1924 ft | 155 kts | 69° |
| 2026-05-05 22:12 | 52.31770 | 13.35234 | 1710 ft | 150 kts | 69° |
| 2026-05-05 22:12 | 52.32147 | 13.36812 | 1501 ft | 146 kts | 69° |
| 2026-05-05 22:12 | 52.32502 | 13.38296 | 1306 ft | 137 kts | 69° |
| 2026-05-05 22:13 | 52.32840 | 13.39715 | 1117 ft | 133 kts | 69° |
| 2026-05-05 22:13 | 52.33177 | 13.41121 | 932 ft | 132 kts | 68° |
| 2026-05-05 22:13 | 52.33508 | 13.42518 | 768 ft | 133 kts | 68° |
| 2026-05-05 22:13 | 52.33843 | 13.43916 | 593 ft | 133 kts | 67° |
| 2026-05-05 22:14 | 52.34185 | 13.45317 | 401 ft | 132 kts | 66° |
| 2026-05-05 22:14 | 52.34512 | 13.46707 | 237 ft | 131 kts | 67° |
| 2026-05-05 22:14 | 52.34822 | 13.48023 | 155 ft | 111 kts | 68° |
| 2026-05-05 22:14 | 52.35005 | 13.48792 | 154 ft | 40 kts | 69° |
| 2026-05-05 22:15 | 52.35112 | 13.49174 | 154 ft | 34 kts | 54° |
| 2026-05-05 22:15 | 52.35276 | 13.49422 | 154 ft | 30 kts | 38° |
| 2026-05-05 22:15 | 52.35436 | 13.49638 | 154 ft | 29 kts | 50° |
| 2026-05-05 22:15 | 52.35513 | 13.49937 | 154 ft | 29 kts | 68° |
| 2026-05-05 22:16 | 52.35586 | 13.50240 | 154 ft | 29 kts | 68° |
| 2026-05-05 22:16 | 52.35658 | 13.50543 | 154 ft | 29 kts | 69° |
| 2026-05-05 22:16 | 52.35722 | 13.50799 | 154 ft | 17 kts | 59° |
| 2026-05-05 22:16 | 52.35835 | 13.50787 | 155 ft | 21 kts | 338° |
| 2026-05-05 22:17 | 52.35982 | 13.50696 | 155 ft | 23 kts | 340° |
| 2026-05-05 22:17 | 52.36138 | 13.50596 | 155 ft | 25 kts | 338° |
| 2026-05-05 22:17 | 52.36270 | 13.50514 | 155 ft | 10 kts | 345° |
| 2026-05-05 22:17 | 52.36311 | 13.50592 | 155 ft | 11 kts | 69° |
| 2026-05-05 22:18 | 52.36318 | 13.50621 | 155 ft | 2 kts | 68° |
| 2026-05-05 22:18 | 52.36320 | 13.50628 | 155 ft | 0 kts | 68° |